sensor_id;sensor_type;location;lat;lon;timestamp;P1;durP1;ratioP1;P2;durP2;ratioP2
19280;SDS011;9774;52.034;5.342;2023-04-03T00:00:34;1.20;;;0.60;;
19280;SDS011;9774;52.034;5.342;2023-04-03T00:03:02;1.48;;;0.77;;
19280;SDS011;9774;52.034;5.342;2023-04-03T00:05:29;1.55;;;0.85;;
19280;SDS011;9774;52.034;5.342;2023-04-03T00:07:57;1.10;;;0.77;;
19280;SDS011;9774;52.034;5.342;2023-04-03T00:10:25;1.83;;;0.73;;
19280;SDS011;9774;52.034;5.342;2023-04-03T00:12:54;2.50;;;0.70;;
19280;SDS011;9774;52.034;5.342;2023-04-03T00:15:22;1.60;;;0.90;;
19280;SDS011;9774;52.034;5.342;2023-04-03T00:17:49;1.35;;;0.60;;
19280;SDS011;9774;52.034;5.342;2023-04-03T00:20:16;2.08;;;1.05;;
19280;SDS011;9774;52.034;5.342;2023-04-03T00:22:44;1.85;;;0.88;;
19280;SDS011;9774;52.034;5.342;2023-04-03T00:25:11;1.30;;;0.70;;
19280;SDS011;9774;52.034;5.342;2023-04-03T00:27:39;1.95;;;0.60;;
19280;SDS011;9774;52.034;5.342;2023-04-03T00:30:09;1.30;;;0.75;;
19280;SDS011;9774;52.034;5.342;2023-04-03T00:32:39;1.83;;;0.75;;
19280;SDS011;9774;52.034;5.342;2023-04-03T00:35:07;2.03;;;0.63;;
19280;SDS011;9774;52.034;5.342;2023-04-03T00:37:35;2.85;;;0.60;;
19280;SDS011;9774;52.034;5.342;2023-04-03T00:40:03;1.45;;;0.73;;
19280;SDS011;9774;52.034;5.342;2023-04-03T00:42:31;1.25;;;0.63;;
19280;SDS011;9774;52.034;5.342;2023-04-03T00:47:51;0.85;;;0.68;;
19280;SDS011;9774;52.034;5.342;2023-04-03T00:50:19;1.20;;;0.75;;
19280;SDS011;9774;52.034;5.342;2023-04-03T00:52:46;1.45;;;0.80;;
19280;SDS011;9774;52.034;5.342;2023-04-03T00:55:14;1.75;;;0.73;;
19280;SDS011;9774;52.034;5.342;2023-04-03T00:57:42;1.73;;;0.93;;
19280;SDS011;9774;52.034;5.342;2023-04-03T01:00:11;2.10;;;0.95;;
19280;SDS011;9774;52.034;5.342;2023-04-03T01:02:43;1.40;;;0.93;;
19280;SDS011;9774;52.034;5.342;2023-04-03T01:05:11;2.38;;;1.00;;
19280;SDS011;9774;52.034;5.342;2023-04-03T01:07:41;1.25;;;0.55;;
19280;SDS011;9774;52.034;5.342;2023-04-03T01:10:09;1.98;;;1.08;;
19280;SDS011;9774;52.034;5.342;2023-04-03T01:12:40;1.75;;;0.95;;
19280;SDS011;9774;52.034;5.342;2023-04-03T01:15:09;0.85;;;0.57;;
19280;SDS011;9774;52.034;5.342;2023-04-03T01:17:39;1.75;;;0.95;;
19280;SDS011;9774;52.034;5.342;2023-04-03T01:23:24;1.00;;;0.55;;
19280;SDS011;9774;52.034;5.342;2023-04-03T01:26:04;2.15;;;0.80;;
19280;SDS011;9774;52.034;5.342;2023-04-03T01:28:32;1.00;;;0.60;;
19280;SDS011;9774;52.034;5.342;2023-04-03T01:31:02;1.92;;;1.30;;
19280;SDS011;9774;52.034;5.342;2023-04-03T01:33:39;1.48;;;1.00;;
19280;SDS011;9774;52.034;5.342;2023-04-03T01:36:10;1.75;;;0.82;;
19280;SDS011;9774;52.034;5.342;2023-04-03T01:38:41;1.92;;;0.75;;
19280;SDS011;9774;52.034;5.342;2023-04-03T01:41:08;1.27;;;0.90;;
19280;SDS011;9774;52.034;5.342;2023-04-03T01:43:36;1.50;;;1.00;;
19280;SDS011;9774;52.034;5.342;2023-04-03T01:46:03;3.33;;;1.15;;
19280;SDS011;9774;52.034;5.342;2023-04-03T01:48:31;1.45;;;1.02;;
19280;SDS011;9774;52.034;5.342;2023-04-03T01:50:59;2.00;;;1.08;;
19280;SDS011;9774;52.034;5.342;2023-04-03T01:53:26;1.75;;;0.63;;
19280;SDS011;9774;52.034;5.342;2023-04-03T01:55:54;0.80;;;0.60;;
19280;SDS011;9774;52.034;5.342;2023-04-03T01:58:22;1.65;;;0.90;;
19280;SDS011;9774;52.034;5.342;2023-04-03T02:00:50;1.50;;;1.00;;
19280;SDS011;9774;52.034;5.342;2023-04-03T02:03:18;1.75;;;1.05;;
19280;SDS011;9774;52.034;5.342;2023-04-03T02:05:46;1.70;;;0.77;;
19280;SDS011;9774;52.034;5.342;2023-04-03T02:08:15;1.48;;;0.82;;
19280;SDS011;9774;52.034;5.342;2023-04-03T02:10:43;2.88;;;0.80;;
19280;SDS011;9774;52.034;5.342;2023-04-03T02:13:13;1.20;;;0.80;;
19280;SDS011;9774;52.034;5.342;2023-04-03T02:15:40;2.47;;;1.10;;
19280;SDS011;9774;52.034;5.342;2023-04-03T02:18:08;1.20;;;0.80;;
19280;SDS011;9774;52.034;5.342;2023-04-03T02:20:35;1.85;;;0.80;;
19280;SDS011;9774;52.034;5.342;2023-04-03T02:23:02;2.67;;;0.88;;
19280;SDS011;9774;52.034;5.342;2023-04-03T02:25:32;0.93;;;0.70;;
19280;SDS011;9774;52.034;5.342;2023-04-03T02:27:59;2.42;;;1.10;;
19280;SDS011;9774;52.034;5.342;2023-04-03T02:30:27;1.35;;;0.88;;
19280;SDS011;9774;52.034;5.342;2023-04-03T02:32:54;2.67;;;1.45;;
19280;SDS011;9774;52.034;5.342;2023-04-03T02:35:21;2.40;;;1.05;;
19280;SDS011;9774;52.034;5.342;2023-04-03T02:37:49;1.40;;;0.75;;
19280;SDS011;9774;52.034;5.342;2023-04-03T02:40:16;1.60;;;0.80;;
19280;SDS011;9774;52.034;5.342;2023-04-03T02:42:45;2.00;;;0.95;;
19280;SDS011;9774;52.034;5.342;2023-04-03T02:45:12;1.42;;;0.90;;
19280;SDS011;9774;52.034;5.342;2023-04-03T02:47:39;2.40;;;1.25;;
19280;SDS011;9774;52.034;5.342;2023-04-03T02:50:07;1.25;;;0.70;;
19280;SDS011;9774;52.034;5.342;2023-04-03T02:52:35;2.42;;;1.00;;
19280;SDS011;9774;52.034;5.342;2023-04-03T02:55:02;2.00;;;0.85;;
19280;SDS011;9774;52.034;5.342;2023-04-03T02:57:30;1.75;;;0.80;;
19280;SDS011;9774;52.034;5.342;2023-04-03T02:59:59;2.22;;;1.20;;
19280;SDS011;9774;52.034;5.342;2023-04-03T03:02:26;3.25;;;0.90;;
19280;SDS011;9774;52.034;5.342;2023-04-03T03:04:53;1.95;;;1.02;;
19280;SDS011;9774;52.034;5.342;2023-04-03T03:07:21;1.60;;;0.70;;
19280;SDS011;9774;52.034;5.342;2023-04-03T03:09:48;1.35;;;0.63;;
19280;SDS011;9774;52.034;5.342;2023-04-03T03:12:15;1.95;;;1.00;;
19280;SDS011;9774;52.034;5.342;2023-04-03T03:14:46;1.27;;;0.63;;
19280;SDS011;9774;52.034;5.342;2023-04-03T03:17:15;1.25;;;0.80;;
19280;SDS011;9774;52.034;5.342;2023-04-03T03:19:42;1.58;;;0.80;;
19280;SDS011;9774;52.034;5.342;2023-04-03T03:22:10;1.00;;;0.70;;
19280;SDS011;9774;52.034;5.342;2023-04-03T03:24:38;0.95;;;0.60;;
19280;SDS011;9774;52.034;5.342;2023-04-03T03:27:05;2.33;;;0.77;;
19280;SDS011;9774;52.034;5.342;2023-04-03T03:29:32;1.85;;;0.77;;
19280;SDS011;9774;52.034;5.342;2023-04-03T03:32:00;1.23;;;0.75;;
19280;SDS011;9774;52.034;5.342;2023-04-03T03:34:29;1.65;;;0.90;;
19280;SDS011;9774;52.034;5.342;2023-04-03T03:36:57;2.85;;;0.90;;
19280;SDS011;9774;52.034;5.342;2023-04-03T03:39:24;1.33;;;0.93;;
19280;SDS011;9774;52.034;5.342;2023-04-03T03:41:51;1.45;;;0.85;;
19280;SDS011;9774;52.034;5.342;2023-04-03T03:44:19;2.72;;;1.20;;
19280;SDS011;9774;52.034;5.342;2023-04-03T03:46:47;1.05;;;0.77;;
19280;SDS011;9774;52.034;5.342;2023-04-03T03:49:14;2.05;;;0.80;;
19280;SDS011;9774;52.034;5.342;2023-04-03T03:51:43;1.45;;;0.88;;
19280;SDS011;9774;52.034;5.342;2023-04-03T03:54:10;1.92;;;0.80;;
19280;SDS011;9774;52.034;5.342;2023-04-03T03:56:38;2.38;;;1.15;;
19280;SDS011;9774;52.034;5.342;2023-04-03T03:59:05;2.28;;;0.90;;
19280;SDS011;9774;52.034;5.342;2023-04-03T04:01:33;2.05;;;1.00;;
19280;SDS011;9774;52.034;5.342;2023-04-03T04:04:00;2.42;;;0.95;;
19280;SDS011;9774;52.034;5.342;2023-04-03T04:06:27;2.30;;;0.85;;
19280;SDS011;9774;52.034;5.342;2023-04-03T04:08:56;2.47;;;1.10;;
19280;SDS011;9774;52.034;5.342;2023-04-03T04:11:23;1.92;;;1.05;;
19280;SDS011;9774;52.034;5.342;2023-04-03T04:13:52;1.50;;;0.82;;
19280;SDS011;9774;52.034;5.342;2023-04-03T04:16:20;2.65;;;1.02;;
19280;SDS011;9774;52.034;5.342;2023-04-03T04:18:47;1.55;;;0.88;;
19280;SDS011;9774;52.034;5.342;2023-04-03T04:21:14;2.35;;;1.35;;
19280;SDS011;9774;52.034;5.342;2023-04-03T04:23:41;3.67;;;1.30;;
19280;SDS011;9774;52.034;5.342;2023-04-03T04:26:10;3.15;;;1.50;;
19280;SDS011;9774;52.034;5.342;2023-04-03T04:28:37;2.53;;;0.85;;
19280;SDS011;9774;52.034;5.342;2023-04-03T04:31:04;3.35;;;0.82;;
19280;SDS011;9774;52.034;5.342;2023-04-03T04:33:32;1.85;;;1.02;;
19280;SDS011;9774;52.034;5.342;2023-04-03T04:35:59;1.70;;;1.13;;
19280;SDS011;9774;52.034;5.342;2023-04-03T04:38:27;2.00;;;0.90;;
19280;SDS011;9774;52.034;5.342;2023-04-03T04:40:54;1.15;;;0.90;;
19280;SDS011;9774;52.034;5.342;2023-04-03T04:43:23;2.28;;;0.88;;
19280;SDS011;9774;52.034;5.342;2023-04-03T04:45:59;0.98;;;0.77;;
19280;SDS011;9774;52.034;5.342;2023-04-03T04:48:27;2.28;;;0.82;;
19280;SDS011;9774;52.034;5.342;2023-04-03T04:50:56;4.38;;;1.30;;
19280;SDS011;9774;52.034;5.342;2023-04-03T04:53:23;4.07;;;1.00;;
19280;SDS011;9774;52.034;5.342;2023-04-03T04:55:51;2.58;;;1.33;;
19280;SDS011;9774;52.034;5.342;2023-04-03T04:58:18;2.47;;;1.23;;
19280;SDS011;9774;52.034;5.342;2023-04-03T05:00:47;1.85;;;0.75;;
19280;SDS011;9774;52.034;5.342;2023-04-03T05:03:15;2.60;;;1.40;;
19280;SDS011;9774;52.034;5.342;2023-04-03T05:05:42;2.10;;;1.55;;
19280;SDS011;9774;52.034;5.342;2023-04-03T05:08:10;3.28;;;1.52;;
19280;SDS011;9774;52.034;5.342;2023-04-03T05:10:37;4.78;;;1.45;;
19280;SDS011;9774;52.034;5.342;2023-04-03T05:13:05;4.72;;;1.13;;
19280;SDS011;9774;52.034;5.342;2023-04-03T05:15:33;4.55;;;1.77;;
19280;SDS011;9774;52.034;5.342;2023-04-03T05:18:01;5.05;;;1.40;;
19280;SDS011;9774;52.034;5.342;2023-04-03T05:20:30;3.22;;;1.60;;
19280;SDS011;9774;52.034;5.342;2023-04-03T05:22:57;2.92;;;1.15;;
19280;SDS011;9774;52.034;5.342;2023-04-03T05:25:25;3.60;;;1.10;;
19280;SDS011;9774;52.034;5.342;2023-04-03T05:27:52;2.45;;;1.48;;
19280;SDS011;9774;52.034;5.342;2023-04-03T05:30:19;2.42;;;1.27;;
19280;SDS011;9774;52.034;5.342;2023-04-03T05:32:47;1.50;;;0.80;;
19280;SDS011;9774;52.034;5.342;2023-04-03T05:35:16;2.10;;;1.35;;
19280;SDS011;9774;52.034;5.342;2023-04-03T05:37:43;1.60;;;0.98;;
19280;SDS011;9774;52.034;5.342;2023-04-03T05:40:10;1.77;;;1.00;;
19280;SDS011;9774;52.034;5.342;2023-04-03T05:42:38;2.30;;;1.00;;
19280;SDS011;9774;52.034;5.342;2023-04-03T05:45:05;1.90;;;1.13;;
19280;SDS011;9774;52.034;5.342;2023-04-03T05:47:33;2.90;;;1.05;;
19280;SDS011;9774;52.034;5.342;2023-04-03T05:50:00;1.02;;;0.80;;
19280;SDS011;9774;52.034;5.342;2023-04-03T05:52:30;5.03;;;1.23;;
19280;SDS011;9774;52.034;5.342;2023-04-03T05:54:59;1.90;;;1.27;;
19280;SDS011;9774;52.034;5.342;2023-04-03T05:57:26;2.25;;;1.15;;
19280;SDS011;9774;52.034;5.342;2023-04-03T05:59:54;1.98;;;0.90;;
19280;SDS011;9774;52.034;5.342;2023-04-03T06:02:22;1.92;;;1.02;;
19280;SDS011;9774;52.034;5.342;2023-04-03T06:04:50;2.47;;;1.15;;
19280;SDS011;9774;52.034;5.342;2023-04-03T06:07:18;1.90;;;0.98;;
19280;SDS011;9774;52.034;5.342;2023-04-03T06:09:49;3.65;;;1.45;;
19280;SDS011;9774;52.034;5.342;2023-04-03T06:12:17;1.98;;;1.10;;
19280;SDS011;9774;52.034;5.342;2023-04-03T06:14:45;3.28;;;1.10;;
19280;SDS011;9774;52.034;5.342;2023-04-03T06:17:13;1.92;;;1.20;;
19280;SDS011;9774;52.034;5.342;2023-04-03T06:19:40;1.75;;;1.10;;
19280;SDS011;9774;52.034;5.342;2023-04-03T06:22:08;1.25;;;1.10;;
19280;SDS011;9774;52.034;5.342;2023-04-03T06:24:36;1.70;;;0.90;;
19280;SDS011;9774;52.034;5.342;2023-04-03T06:27:05;2.03;;;1.42;;
19280;SDS011;9774;52.034;5.342;2023-04-03T06:29:32;3.88;;;1.30;;
19280;SDS011;9774;52.034;5.342;2023-04-03T06:32:00;5.90;;;1.50;;
19280;SDS011;9774;52.034;5.342;2023-04-03T06:34:27;1.60;;;0.85;;
19280;SDS011;9774;52.034;5.342;2023-04-03T06:36:54;1.83;;;0.88;;
19280;SDS011;9774;52.034;5.342;2023-04-03T06:39:22;1.88;;;1.30;;
19280;SDS011;9774;52.034;5.342;2023-04-03T06:41:49;3.50;;;1.15;;
19280;SDS011;9774;52.034;5.342;2023-04-03T06:44:18;1.25;;;0.70;;
19280;SDS011;9774;52.034;5.342;2023-04-03T06:46:45;2.85;;;1.25;;
19280;SDS011;9774;52.034;5.342;2023-04-03T06:49:13;2.67;;;1.30;;
19280;SDS011;9774;52.034;5.342;2023-04-03T06:51:41;2.17;;;1.20;;
19280;SDS011;9774;52.034;5.342;2023-04-03T06:54:08;4.90;;;1.73;;
19280;SDS011;9774;52.034;5.342;2023-04-03T06:56:35;2.22;;;0.80;;
19280;SDS011;9774;52.034;5.342;2023-04-03T06:59:03;2.03;;;1.23;;
19280;SDS011;9774;52.034;5.342;2023-04-03T07:01:31;2.30;;;1.00;;
19280;SDS011;9774;52.034;5.342;2023-04-03T07:03:59;1.73;;;1.10;;
19280;SDS011;9774;52.034;5.342;2023-04-03T07:06:26;2.70;;;1.00;;
19280;SDS011;9774;52.034;5.342;2023-04-03T07:08:53;1.60;;;1.10;;
19280;SDS011;9774;52.034;5.342;2023-04-03T07:11:21;3.88;;;2.10;;
19280;SDS011;9774;52.034;5.342;2023-04-03T07:13:49;3.10;;;1.20;;
19280;SDS011;9774;52.034;5.342;2023-04-03T07:16:17;2.10;;;1.13;;
19280;SDS011;9774;52.034;5.342;2023-04-03T07:18:46;2.40;;;1.10;;
19280;SDS011;9774;52.034;5.342;2023-04-03T07:21:13;4.88;;;1.50;;
19280;SDS011;9774;52.034;5.342;2023-04-03T07:23:41;2.47;;;1.30;;
19280;SDS011;9774;52.034;5.342;2023-04-03T07:26:08;1.90;;;1.30;;
19280;SDS011;9774;52.034;5.342;2023-04-03T07:28:35;2.00;;;1.05;;
19280;SDS011;9774;52.034;5.342;2023-04-03T07:31:05;2.22;;;1.23;;
19280;SDS011;9774;52.034;5.342;2023-04-03T07:33:36;1.60;;;1.17;;
19280;SDS011;9774;52.034;5.342;2023-04-03T07:36:06;3.15;;;0.85;;
19280;SDS011;9774;52.034;5.342;2023-04-03T07:38:33;2.15;;;1.33;;
19280;SDS011;9774;52.034;5.342;2023-04-03T07:41:02;2.92;;;1.20;;
19280;SDS011;9774;52.034;5.342;2023-04-03T07:43:31;1.58;;;1.02;;
19280;SDS011;9774;52.034;5.342;2023-04-03T07:45:59;2.50;;;1.10;;
19280;SDS011;9774;52.034;5.342;2023-04-03T07:48:27;2.17;;;1.20;;
19280;SDS011;9774;52.034;5.342;2023-04-03T07:50:58;1.88;;;1.05;;
19280;SDS011;9774;52.034;5.342;2023-04-03T07:53:27;3.20;;;1.05;;
19280;SDS011;9774;52.034;5.342;2023-04-03T07:55:56;1.75;;;1.20;;
19280;SDS011;9774;52.034;5.342;2023-04-03T07:58:23;3.92;;;1.48;;
19280;SDS011;9774;52.034;5.342;2023-04-03T08:00:51;2.15;;;1.33;;
19280;SDS011;9774;52.034;5.342;2023-04-03T08:03:19;1.13;;;0.63;;
19280;SDS011;9774;52.034;5.342;2023-04-03T08:05:47;6.78;;;1.08;;
19280;SDS011;9774;52.034;5.342;2023-04-03T08:08:16;2.92;;;1.17;;
19280;SDS011;9774;52.034;5.342;2023-04-03T08:10:49;3.10;;;1.20;;
19280;SDS011;9774;52.034;5.342;2023-04-03T08:13:17;2.70;;;0.70;;
19280;SDS011;9774;52.034;5.342;2023-04-03T08:15:44;1.83;;;0.95;;
19280;SDS011;9774;52.034;5.342;2023-04-03T08:18:12;2.47;;;0.73;;
19280;SDS011;9774;52.034;5.342;2023-04-03T08:20:40;2.35;;;0.80;;
19280;SDS011;9774;52.034;5.342;2023-04-03T08:23:08;2.45;;;0.85;;
19280;SDS011;9774;52.034;5.342;2023-04-03T08:25:37;2.03;;;0.70;;
19280;SDS011;9774;52.034;5.342;2023-04-03T08:28:07;2.63;;;1.00;;
19280;SDS011;9774;52.034;5.342;2023-04-03T08:30:34;4.25;;;0.90;;
19280;SDS011;9774;52.034;5.342;2023-04-03T08:33:02;2.13;;;0.80;;
19280;SDS011;9774;52.034;5.342;2023-04-03T08:35:31;2.78;;;0.50;;
19280;SDS011;9774;52.034;5.342;2023-04-03T08:37:58;1.15;;;0.55;;
19280;SDS011;9774;52.034;5.342;2023-04-03T08:40:25;1.20;;;0.60;;
19280;SDS011;9774;52.034;5.342;2023-04-03T08:42:56;1.02;;;0.60;;
19280;SDS011;9774;52.034;5.342;2023-04-03T08:45:37;1.75;;;0.70;;
19280;SDS011;9774;52.034;5.342;2023-04-03T08:48:11;1.25;;;0.57;;
19280;SDS011;9774;52.034;5.342;2023-04-03T08:50:42;0.65;;;0.40;;
19280;SDS011;9774;52.034;5.342;2023-04-03T08:53:14;1.35;;;0.52;;
19280;SDS011;9774;52.034;5.342;2023-04-03T08:55:43;1.13;;;0.50;;
19280;SDS011;9774;52.034;5.342;2023-04-03T08:58:12;1.48;;;0.60;;
19280;SDS011;9774;52.034;5.342;2023-04-03T09:00:45;2.83;;;0.52;;
19280;SDS011;9774;52.034;5.342;2023-04-03T09:03:16;0.73;;;0.32;;
19280;SDS011;9774;52.034;5.342;2023-04-03T09:05:47;1.50;;;0.43;;
19280;SDS011;9774;52.034;5.342;2023-04-03T09:08:24;3.88;;;0.80;;
19280;SDS011;9774;52.034;5.342;2023-04-03T09:10:58;1.50;;;0.38;;
19280;SDS011;9774;52.034;5.342;2023-04-03T09:13:33;1.10;;;0.25;;
19280;SDS011;9774;52.034;5.342;2023-04-03T09:16:10;2.13;;;0.30;;
19280;SDS011;9774;52.034;5.342;2023-04-03T09:18:48;1.10;;;0.40;;
19280;SDS011;9774;52.034;5.342;2023-04-03T09:21:24;1.75;;;0.43;;
19280;SDS011;9774;52.034;5.342;2023-04-03T09:23:58;1.55;;;0.30;;
19280;SDS011;9774;52.034;5.342;2023-04-03T09:26:28;1.20;;;0.30;;
19280;SDS011;9774;52.034;5.342;2023-04-03T09:29:00;0.77;;;0.50;;
19280;SDS011;9774;52.034;5.342;2023-04-03T09:31:37;1.10;;;0.22;;
19280;SDS011;9774;52.034;5.342;2023-04-03T09:34:08;0.50;;;0.30;;
19280;SDS011;9774;52.034;5.342;2023-04-03T09:36:47;0.40;;;0.17;;
19280;SDS011;9774;52.034;5.342;2023-04-03T09:39:17;2.05;;;0.47;;
19280;SDS011;9774;52.034;5.342;2023-04-03T09:41:55;0.55;;;0.20;;
19280;SDS011;9774;52.034;5.342;2023-04-03T09:44:25;1.75;;;0.50;;
19280;SDS011;9774;52.034;5.342;2023-04-03T09:46:56;0.85;;;0.32;;
19280;SDS011;9774;52.034;5.342;2023-04-03T09:49:25;0.98;;;0.25;;
19280;SDS011;9774;52.034;5.342;2023-04-03T09:51:53;0.60;;;0.22;;
19280;SDS011;9774;52.034;5.342;2023-04-03T09:54:24;0.52;;;0.28;;
19280;SDS011;9774;52.034;5.342;2023-04-03T09:57:07;1.42;;;0.50;;
19280;SDS011;9774;52.034;5.342;2023-04-03T09:59:37;1.00;;;0.50;;
19280;SDS011;9774;52.034;5.342;2023-04-03T10:02:21;0.95;;;0.40;;
19280;SDS011;9774;52.034;5.342;2023-04-03T10:04:57;0.85;;;0.20;;
19280;SDS011;9774;52.034;5.342;2023-04-03T10:07:28;0.55;;;0.22;;
19280;SDS011;9774;52.034;5.342;2023-04-03T10:09:59;0.50;;;0.20;;
19280;SDS011;9774;52.034;5.342;2023-04-03T10:12:28;1.20;;;0.15;;
19280;SDS011;9774;52.034;5.342;2023-04-03T10:14:57;0.80;;;0.30;;
19280;SDS011;9774;52.034;5.342;2023-04-03T10:20:26;0.60;;;0.20;;
19280;SDS011;9774;52.034;5.342;2023-04-03T10:23:11;0.70;;;0.20;;
19280;SDS011;9774;52.034;5.342;2023-04-03T10:25:47;2.05;;;0.40;;
19280;SDS011;9774;52.034;5.342;2023-04-03T10:28:23;1.08;;;0.43;;
19280;SDS011;9774;52.034;5.342;2023-04-03T10:30:58;0.50;;;0.20;;
19280;SDS011;9774;52.034;5.342;2023-04-03T10:33:36;0.85;;;0.40;;
19280;SDS011;9774;52.034;5.342;2023-04-03T10:36:17;0.73;;;0.17;;
19280;SDS011;9774;52.034;5.342;2023-04-03T10:38:51;0.52;;;0.22;;
19280;SDS011;9774;52.034;5.342;2023-04-03T10:41:30;0.85;;;0.00;;
19280;SDS011;9774;52.034;5.342;2023-04-03T10:44:06;0.60;;;0.20;;
19280;SDS011;9774;52.034;5.342;2023-04-03T10:46:41;0.40;;;0.10;;
19280;SDS011;9774;52.034;5.342;2023-04-03T10:49:17;0.38;;;0.20;;
19280;SDS011;9774;52.034;5.342;2023-04-03T10:51:53;0.70;;;0.20;;
19280;SDS011;9774;52.034;5.342;2023-04-03T10:54:30;0.57;;;0.13;;
19280;SDS011;9774;52.034;5.342;2023-04-03T10:57:03;2.83;;;0.22;;
19280;SDS011;9774;52.034;5.342;2023-04-03T10:59:32;1.02;;;0.22;;
19280;SDS011;9774;52.034;5.342;2023-04-03T11:02:04;1.98;;;0.20;;
19280;SDS011;9774;52.034;5.342;2023-04-03T11:04:37;1.02;;;0.22;;
19280;SDS011;9774;52.034;5.342;2023-04-03T11:07:10;0.50;;;0.40;;
19280;SDS011;9774;52.034;5.342;2023-04-03T11:09:43;0.52;;;0.30;;
19280;SDS011;9774;52.034;5.342;2023-04-03T11:12:15;0.55;;;0.10;;
19280;SDS011;9774;52.034;5.342;2023-04-03T11:14:53;0.30;;;0.10;;
19280;SDS011;9774;52.034;5.342;2023-04-03T11:17:25;2.60;;;0.22;;
19280;SDS011;9774;52.034;5.342;2023-04-03T11:20:02;0.45;;;0.30;;
19280;SDS011;9774;52.034;5.342;2023-04-03T11:22:35;0.65;;;0.35;;
19280;SDS011;9774;52.034;5.342;2023-04-03T11:25:08;1.35;;;0.50;;
19280;SDS011;9774;52.034;5.342;2023-04-03T11:27:46;1.10;;;0.68;;
19280;SDS011;9774;52.034;5.342;2023-04-03T11:30:18;0.75;;;0.45;;
19280;SDS011;9774;52.034;5.342;2023-04-03T11:32:52;0.30;;;0.17;;
19280;SDS011;9774;52.034;5.342;2023-04-03T11:35:30;1.38;;;0.52;;
19280;SDS011;9774;52.034;5.342;2023-04-03T11:37:59;0.82;;;0.47;;
19280;SDS011;9774;52.034;5.342;2023-04-03T11:40:31;1.20;;;0.30;;
19280;SDS011;9774;52.034;5.342;2023-04-03T11:43:04;1.92;;;0.50;;
19280;SDS011;9774;52.034;5.342;2023-04-03T11:45:38;2.10;;;0.40;;
19280;SDS011;9774;52.034;5.342;2023-04-03T12:09:27;1.20;;;0.43;;
19280;SDS011;9774;52.034;5.342;2023-04-03T12:12:20;0.68;;;0.30;;
19280;SDS011;9774;52.034;5.342;2023-04-03T12:14:56;0.60;;;0.35;;
19280;SDS011;9774;52.034;5.342;2023-04-03T12:17:44;1.45;;;0.30;;
19280;SDS011;9774;52.034;5.342;2023-04-03T12:23:34;0.90;;;0.30;;
19280;SDS011;9774;52.034;5.342;2023-04-03T12:26:05;2.50;;;0.60;;
19280;SDS011;9774;52.034;5.342;2023-04-03T12:28:48;0.82;;;0.40;;
19280;SDS011;9774;52.034;5.342;2023-04-03T12:31:17;1.33;;;0.40;;
19280;SDS011;9774;52.034;5.342;2023-04-03T12:34:01;1.17;;;0.40;;
19280;SDS011;9774;52.034;5.342;2023-04-03T12:36:41;0.65;;;0.28;;
19280;SDS011;9774;52.034;5.342;2023-04-03T12:39:19;0.85;;;0.32;;
19280;SDS011;9774;52.034;5.342;2023-04-03T12:42:32;1.15;;;0.30;;
19280;SDS011;9774;52.034;5.342;2023-04-03T12:45:20;0.82;;;0.45;;
19280;SDS011;9774;52.034;5.342;2023-04-03T12:47:49;0.63;;;0.32;;
19280;SDS011;9774;52.034;5.342;2023-04-03T12:50:21;0.90;;;0.45;;
19280;SDS011;9774;52.034;5.342;2023-04-03T12:52:52;1.73;;;0.70;;
19280;SDS011;9774;52.034;5.342;2023-04-03T12:55:23;1.48;;;0.60;;
19280;SDS011;9774;52.034;5.342;2023-04-03T12:57:51;1.30;;;0.40;;
19280;SDS011;9774;52.034;5.342;2023-04-03T13:00:30;0.82;;;0.40;;
19280;SDS011;9774;52.034;5.342;2023-04-03T13:03:04;0.40;;;0.25;;
19280;SDS011;9774;52.034;5.342;2023-04-03T13:05:32;2.33;;;0.40;;
19280;SDS011;9774;52.034;5.342;2023-04-03T13:08:01;1.92;;;0.35;;
19280;SDS011;9774;52.034;5.342;2023-04-03T13:10:30;3.40;;;0.60;;
19280;SDS011;9774;52.034;5.342;2023-04-03T13:12:58;1.77;;;0.80;;
19280;SDS011;9774;52.034;5.342;2023-04-03T13:15:41;1.15;;;0.60;;
19280;SDS011;9774;52.034;5.342;2023-04-03T13:21:04;1.30;;;0.40;;
19280;SDS011;9774;52.034;5.342;2023-04-03T13:23:34;1.83;;;0.70;;
19280;SDS011;9774;52.034;5.342;2023-04-03T13:26:05;2.20;;;0.70;;
19280;SDS011;9774;52.034;5.342;2023-04-03T13:28:34;1.65;;;0.30;;
19280;SDS011;9774;52.034;5.342;2023-04-03T13:31:05;0.47;;;0.40;;
19280;SDS011;9774;52.034;5.342;2023-04-03T13:33:35;1.48;;;0.55;;
19280;SDS011;9774;52.034;5.342;2023-04-03T13:36:04;0.68;;;0.30;;
19280;SDS011;9774;52.034;5.342;2023-04-03T13:38:35;1.40;;;0.35;;
19280;SDS011;9774;52.034;5.342;2023-04-03T13:41:03;0.77;;;0.40;;
19280;SDS011;9774;52.034;5.342;2023-04-03T13:43:47;0.75;;;0.43;;
19280;SDS011;9774;52.034;5.342;2023-04-03T13:46:27;1.15;;;0.45;;
19280;SDS011;9774;52.034;5.342;2023-04-03T13:48:55;2.42;;;0.40;;
19280;SDS011;9774;52.034;5.342;2023-04-03T13:51:24;1.48;;;0.50;;
19280;SDS011;9774;52.034;5.342;2023-04-03T13:53:53;3.28;;;0.70;;
19280;SDS011;9774;52.034;5.342;2023-04-03T13:56:26;1.15;;;0.45;;
19280;SDS011;9774;52.034;5.342;2023-04-03T13:59:00;1.88;;;0.63;;
19280;SDS011;9774;52.034;5.342;2023-04-03T14:01:48;1.20;;;0.60;;
19280;SDS011;9774;52.034;5.342;2023-04-03T14:04:19;0.60;;;0.40;;
19280;SDS011;9774;52.034;5.342;2023-04-03T14:06:48;1.25;;;0.70;;
19280;SDS011;9774;52.034;5.342;2023-04-03T14:09:16;1.30;;;0.47;;
19280;SDS011;9774;52.034;5.342;2023-04-03T14:11:45;0.80;;;0.30;;
19280;SDS011;9774;52.034;5.342;2023-04-03T14:14:14;0.75;;;0.30;;
19280;SDS011;9774;52.034;5.342;2023-04-03T14:16:44;1.17;;;0.65;;
19280;SDS011;9774;52.034;5.342;2023-04-03T14:19:16;1.98;;;0.80;;
19280;SDS011;9774;52.034;5.342;2023-04-03T14:21:47;1.08;;;0.47;;
19280;SDS011;9774;52.034;5.342;2023-04-03T14:24:16;0.65;;;0.60;;
19280;SDS011;9774;52.034;5.342;2023-04-03T14:26:44;1.10;;;0.50;;
19280;SDS011;9774;52.034;5.342;2023-04-03T14:29:12;0.93;;;0.50;;
19280;SDS011;9774;52.034;5.342;2023-04-03T14:31:40;0.93;;;0.60;;
19280;SDS011;9774;52.034;5.342;2023-04-03T14:34:11;2.65;;;0.75;;
19280;SDS011;9774;52.034;5.342;2023-04-03T14:36:39;2.67;;;0.60;;
19280;SDS011;9774;52.034;5.342;2023-04-03T14:39:08;1.50;;;0.40;;
19280;SDS011;9774;52.034;5.342;2023-04-03T14:41:41;5.22;;;0.40;;
19280;SDS011;9774;52.034;5.342;2023-04-03T14:44:10;3.22;;;0.98;;
19280;SDS011;9774;52.034;5.342;2023-04-03T14:46:38;0.75;;;0.40;;
19280;SDS011;9774;52.034;5.342;2023-04-03T14:49:10;1.23;;;0.70;;
19280;SDS011;9774;52.034;5.342;2023-04-03T14:51:41;0.98;;;0.50;;
19280;SDS011;9774;52.034;5.342;2023-04-03T14:54:10;1.98;;;0.50;;
19280;SDS011;9774;52.034;5.342;2023-04-03T14:56:41;2.70;;;0.60;;
19280;SDS011;9774;52.034;5.342;2023-04-03T14:59:09;2.00;;;0.88;;
19280;SDS011;9774;52.034;5.342;2023-04-03T15:01:39;1.73;;;0.55;;
19280;SDS011;9774;52.034;5.342;2023-04-03T15:04:11;0.80;;;0.50;;
19280;SDS011;9774;52.034;5.342;2023-04-03T15:06:41;1.30;;;0.70;;
19280;SDS011;9774;52.034;5.342;2023-04-03T15:09:12;1.10;;;1.00;;
19280;SDS011;9774;52.034;5.342;2023-04-03T15:11:46;1.13;;;0.60;;
19280;SDS011;9774;52.034;5.342;2023-04-03T15:14:13;0.80;;;0.47;;
19280;SDS011;9774;52.034;5.342;2023-04-03T15:16:41;0.88;;;0.43;;
19280;SDS011;9774;52.034;5.342;2023-04-03T15:19:08;1.30;;;1.08;;
19280;SDS011;9774;52.034;5.342;2023-04-03T15:21:38;1.65;;;0.85;;
19280;SDS011;9774;52.034;5.342;2023-04-03T15:24:05;1.85;;;0.50;;
19280;SDS011;9774;52.034;5.342;2023-04-03T15:26:34;0.80;;;0.55;;
19280;SDS011;9774;52.034;5.342;2023-04-03T15:29:02;0.85;;;0.40;;
19280;SDS011;9774;52.034;5.342;2023-04-03T15:31:30;3.22;;;0.82;;
19280;SDS011;9774;52.034;5.342;2023-04-03T15:33:58;2.78;;;0.80;;
19280;SDS011;9774;52.034;5.342;2023-04-03T15:36:27;3.58;;;0.70;;
19280;SDS011;9774;52.034;5.342;2023-04-03T15:38:56;1.95;;;0.70;;
19280;SDS011;9774;52.034;5.342;2023-04-03T15:41:23;1.75;;;0.98;;
19280;SDS011;9774;52.034;5.342;2023-04-03T15:43:51;2.25;;;1.10;;
19280;SDS011;9774;52.034;5.342;2023-04-03T15:46:18;0.95;;;0.57;;
19280;SDS011;9774;52.034;5.342;2023-04-03T15:48:48;0.90;;;0.55;;
19280;SDS011;9774;52.034;5.342;2023-04-03T15:51:15;1.83;;;0.95;;
19280;SDS011;9774;52.034;5.342;2023-04-03T15:53:44;0.77;;;0.57;;